sensor_id;sensor_type;location;lat;lon;timestamp;pressure;altitude;pressure_sealevel;temperature;humidity
68077;BME280;54866;53.458;14.540;2023-07-22T00:00:58;100118.06;;;13.68;90.21
68077;BME280;54866;53.458;14.540;2023-07-22T00:03:28;100116.24;;;13.63;90.62
68077;BME280;54866;53.458;14.540;2023-07-22T00:06:14;100123.48;;;13.62;90.98
68077;BME280;54866;53.458;14.540;2023-07-22T00:08:43;100119.37;;;13.58;91.33
68077;BME280;54866;53.458;14.540;2023-07-22T00:11:13;100117.94;;;13.55;91.92
68077;BME280;54866;53.458;14.540;2023-07-22T00:13:42;100115.11;;;13.51;92.03
68077;BME280;54866;53.458;14.540;2023-07-22T00:16:12;100117.05;;;13.50;92.38
68077;BME280;54866;53.458;14.540;2023-07-22T00:18:41;100115.28;;;13.48;92.38
68077;BME280;54866;53.458;14.540;2023-07-22T00:21:10;100114.14;;;13.45;92.49
68077;BME280;54866;53.458;14.540;2023-07-22T00:23:40;100114.05;;;13.43;92.58
68077;BME280;54866;53.458;14.540;2023-07-22T00:26:09;100112.51;;;13.40;92.29
68077;BME280;54866;53.458;14.540;2023-07-22T00:28:38;100109.88;;;13.37;92.41
68077;BME280;54866;53.458;14.540;2023-07-22T00:31:08;100107.89;;;13.35;92.31
68077;BME280;54866;53.458;14.540;2023-07-22T00:33:37;100101.69;;;13.31;92.46
68077;BME280;54866;53.458;14.540;2023-07-22T00:36:07;100098.34;;;13.28;92.46
68077;BME280;54866;53.458;14.540;2023-07-22T00:38:36;100104.20;;;13.26;92.59
68077;BME280;54866;53.458;14.540;2023-07-22T00:41:05;100107.80;;;13.23;92.59
68077;BME280;54866;53.458;14.540;2023-07-22T00:43:35;100113.17;;;13.21;92.83
68077;BME280;54866;53.458;14.540;2023-07-22T00:46:06;100113.62;;;13.18;92.85
68077;BME280;54866;53.458;14.540;2023-07-22T00:48:35;100116.88;;;13.14;93.18
68077;BME280;54866;53.458;14.540;2023-07-22T00:51:05;100113.92;;;13.09;93.42
68077;BME280;54866;53.458;14.540;2023-07-22T00:53:34;100110.36;;;13.05;93.56
68077;BME280;54866;53.458;14.540;2023-07-22T00:56:04;100109.88;;;13.02;93.85
68077;BME280;54866;53.458;14.540;2023-07-22T00:58:34;100108.89;;;12.97;93.98
68077;BME280;54866;53.458;14.540;2023-07-22T01:01:03;100111.68;;;12.96;94.40
68077;BME280;54866;53.458;14.540;2023-07-22T01:03:32;100112.58;;;12.92;94.82
68077;BME280;54866;53.458;14.540;2023-07-22T01:06:02;100109.65;;;12.91;95.02
68077;BME280;54866;53.458;14.540;2023-07-22T01:08:32;100103.41;;;12.90;95.91
68077;BME280;54866;53.458;14.540;2023-07-22T01:11:01;100101.42;;;12.91;95.97
68077;BME280;54866;53.458;14.540;2023-07-22T01:13:32;100095.11;;;12.90;96.05
68077;BME280;54866;53.458;14.540;2023-07-22T01:16:01;100103.55;;;12.91;96.02
68077;BME280;54866;53.458;14.540;2023-07-22T01:18:30;100099.23;;;12.91;96.58
68077;BME280;54866;53.458;14.540;2023-07-22T01:21:00;100098.31;;;12.92;96.35
68077;BME280;54866;53.458;14.540;2023-07-22T01:23:29;100092.38;;;12.91;96.29
68077;BME280;54866;53.458;14.540;2023-07-22T01:26:00;100091.74;;;12.90;96.28
68077;BME280;54866;53.458;14.540;2023-07-22T01:28:30;100092.48;;;12.90;96.23
68077;BME280;54866;53.458;14.540;2023-07-22T01:31:00;100092.87;;;12.88;96.43
68077;BME280;54866;53.458;14.540;2023-07-22T01:33:29;100097.02;;;12.85;96.41
68077;BME280;54866;53.458;14.540;2023-07-22T01:35:59;100092.64;;;12.83;96.52
68077;BME280;54866;53.458;14.540;2023-07-22T01:38:29;100091.81;;;12.80;96.41
68077;BME280;54866;53.458;14.540;2023-07-22T01:40:59;100085.81;;;12.77;96.60
68077;BME280;54866;53.458;14.540;2023-07-22T01:43:28;100083.70;;;12.75;97.10
68077;BME280;54866;53.458;14.540;2023-07-22T01:45:57;100081.84;;;12.70;97.43
68077;BME280;54866;53.458;14.540;2023-07-22T01:48:27;100086.31;;;12.70;97.88
68077;BME280;54866;53.458;14.540;2023-07-22T01:50:56;100082.64;;;12.68;97.83
68077;BME280;54866;53.458;14.540;2023-07-22T01:53:25;100082.55;;;12.65;97.78
68077;BME280;54866;53.458;14.540;2023-07-22T01:55:55;100087.15;;;12.65;97.95
68077;BME280;54866;53.458;14.540;2023-07-22T01:58:24;100087.72;;;12.64;98.38
68077;BME280;54866;53.458;14.540;2023-07-22T02:00:53;100085.83;;;12.64;98.33
68077;BME280;54866;53.458;14.540;2023-07-22T02:03:23;100083.10;;;12.63;98.54
68077;BME280;54866;53.458;14.540;2023-07-22T02:05:52;100075.91;;;12.60;98.51
68077;BME280;54866;53.458;14.540;2023-07-22T02:08:22;100080.04;;;12.60;98.76
68077;BME280;54866;53.458;14.540;2023-07-22T02:13:48;100080.82;;;12.57;99.22
68077;BME280;54866;53.458;14.540;2023-07-22T02:16:17;100087.46;;;12.53;99.35
68077;BME280;54866;53.458;14.540;2023-07-22T02:18:46;100081.72;;;12.50;99.90
68077;BME280;54866;53.458;14.540;2023-07-22T02:21:16;100074.75;;;12.47;99.89
68077;BME280;54866;53.458;14.540;2023-07-22T02:23:45;100077.77;;;12.47;100.00
68077;BME280;54866;53.458;14.540;2023-07-22T02:26:14;100077.05;;;12.45;100.00
68077;BME280;54866;53.458;14.540;2023-07-22T02:28:44;100073.23;;;12.45;100.00
68077;BME280;54866;53.458;14.540;2023-07-22T02:31:14;100072.06;;;12.44;100.00
68077;BME280;54866;53.458;14.540;2023-07-22T02:33:44;100076.40;;;12.41;100.00
68077;BME280;54866;53.458;14.540;2023-07-22T02:36:14;100086.01;;;12.40;100.00
68077;BME280;54866;53.458;14.540;2023-07-22T02:38:44;100084.70;;;12.37;100.00
68077;BME280;54866;53.458;14.540;2023-07-22T02:41:13;100082.87;;;12.38;100.00
68077;BME280;54866;53.458;14.540;2023-07-22T02:43:42;100079.92;;;12.35;100.00
68077;BME280;54866;53.458;14.540;2023-07-22T02:46:12;100086.86;;;12.37;100.00
68077;BME280;54866;53.458;14.540;2023-07-22T02:48:41;100088.06;;;12.37;100.00
68077;BME280;54866;53.458;14.540;2023-07-22T02:51:11;100094.92;;;12.37;100.00
68077;BME280;54866;53.458;14.540;2023-07-22T02:53:40;100098.02;;;12.36;100.00
68077;BME280;54866;53.458;14.540;2023-07-22T02:56:10;100100.16;;;12.38;100.00
68077;BME280;54866;53.458;14.540;2023-07-22T02:58:40;100097.48;;;12.38;100.00
68077;BME280;54866;53.458;14.540;2023-07-22T03:01:09;100100.45;;;12.41;100.00
68077;BME280;54866;53.458;14.540;2023-07-22T03:03:39;100098.36;;;12.40;100.00
68077;BME280;54866;53.458;14.540;2023-07-22T03:06:09;100100.78;;;12.43;100.00
68077;BME280;54866;53.458;14.540;2023-07-22T03:08:38;100106.02;;;12.43;100.00
68077;BME280;54866;53.458;14.540;2023-07-22T03:11:08;100104.30;;;12.45;100.00
68077;BME280;54866;53.458;14.540;2023-07-22T03:13:37;100102.49;;;12.45;100.00
68077;BME280;54866;53.458;14.540;2023-07-22T03:16:07;100103.90;;;12.47;100.00
68077;BME280;54866;53.458;14.540;2023-07-22T03:18:37;100104.20;;;12.47;100.00
68077;BME280;54866;53.458;14.540;2023-07-22T03:21:07;100105.98;;;12.49;100.00
68077;BME280;54866;53.458;14.540;2023-07-22T03:23:37;100101.85;;;12.50;100.00
68077;BME280;54866;53.458;14.540;2023-07-22T03:26:06;100107.75;;;12.51;100.00
68077;BME280;54866;53.458;14.540;2023-07-22T03:28:35;100117.77;;;12.52;100.00
68077;BME280;54866;53.458;14.540;2023-07-22T03:31:05;100124.43;;;12.52;100.00
68077;BME280;54866;53.458;14.540;2023-07-22T03:33:34;100121.71;;;12.49;100.00
68077;BME280;54866;53.458;14.540;2023-07-22T03:36:04;100128.23;;;12.49;100.00
68077;BME280;54866;53.458;14.540;2023-07-22T03:38:33;100133.36;;;12.47;100.00
68077;BME280;54866;53.458;14.540;2023-07-22T03:41:02;100131.45;;;12.45;100.00
68077;BME280;54866;53.458;14.540;2023-07-22T03:43:32;100140.67;;;12.47;100.00
68077;BME280;54866;53.458;14.540;2023-07-22T03:46:01;100144.71;;;12.47;100.00
68077;BME280;54866;53.458;14.540;2023-07-22T03:48:30;100146.34;;;12.47;100.00
68077;BME280;54866;53.458;14.540;2023-07-22T03:50:59;100144.19;;;12.47;100.00
68077;BME280;54866;53.458;14.540;2023-07-22T03:53:29;100142.63;;;12.50;100.00
68077;BME280;54866;53.458;14.540;2023-07-22T03:55:58;100144.32;;;12.53;100.00
68077;BME280;54866;53.458;14.540;2023-07-22T03:58:27;100151.77;;;12.55;100.00
68077;BME280;54866;53.458;14.540;2023-07-22T04:00:57;100149.69;;;12.56;100.00
68077;BME280;54866;53.458;14.540;2023-07-22T04:03:26;100149.91;;;12.56;100.00
68077;BME280;54866;53.458;14.540;2023-07-22T04:05:58;100156.21;;;12.58;100.00
68077;BME280;54866;53.458;14.540;2023-07-22T04:08:27;100157.79;;;12.60;100.00
68077;BME280;54866;53.458;14.540;2023-07-22T04:10:58;100163.79;;;12.60;100.00
68077;BME280;54866;53.458;14.540;2023-07-22T04:13:27;100167.86;;;12.60;100.00
68077;BME280;54866;53.458;14.540;2023-07-22T04:15:57;100166.99;;;12.60;100.00
68077;BME280;54866;53.458;14.540;2023-07-22T04:18:26;100168.80;;;12.63;100.00
68077;BME280;54866;53.458;14.540;2023-07-22T04:21:01;100164.56;;;12.65;100.00
68077;BME280;54866;53.458;14.540;2023-07-22T04:23:30;100169.77;;;12.65;100.00
68077;BME280;54866;53.458;14.540;2023-07-22T04:26:03;100169.68;;;12.67;100.00
68077;BME280;54866;53.458;14.540;2023-07-22T04:28:35;100173.20;;;12.69;100.00
68077;BME280;54866;53.458;14.540;2023-07-22T04:31:04;100171.15;;;12.70;100.00
68077;BME280;54866;53.458;14.540;2023-07-22T04:33:34;100176.23;;;12.71;100.00
68077;BME280;54866;53.458;14.540;2023-07-22T04:36:04;100173.93;;;12.72;100.00
68077;BME280;54866;53.458;14.540;2023-07-22T04:38:35;100178.36;;;12.74;100.00
68077;BME280;54866;53.458;14.540;2023-07-22T04:41:05;100174.54;;;12.77;100.00
68077;BME280;54866;53.458;14.540;2023-07-22T04:43:34;100173.48;;;12.81;100.00
68077;BME280;54866;53.458;14.540;2023-07-22T04:46:03;100172.48;;;12.84;100.00
68077;BME280;54866;53.458;14.540;2023-07-22T04:48:34;100170.58;;;12.87;100.00
68077;BME280;54866;53.458;14.540;2023-07-22T04:51:05;100171.42;;;12.93;100.00
68077;BME280;54866;53.458;14.540;2023-07-22T04:53:34;100173.54;;;12.98;100.00
68077;BME280;54866;53.458;14.540;2023-07-22T04:56:03;100178.92;;;13.03;100.00
68077;BME280;54866;53.458;14.540;2023-07-22T04:58:33;100179.11;;;13.09;100.00
68077;BME280;54866;53.458;14.540;2023-07-22T05:01:02;100175.52;;;13.14;100.00
68077;BME280;54866;53.458;14.540;2023-07-22T05:03:31;100175.34;;;13.18;100.00
68077;BME280;54866;53.458;14.540;2023-07-22T05:06:01;100178.06;;;13.25;100.00
68077;BME280;54866;53.458;14.540;2023-07-22T05:08:30;100175.41;;;13.32;100.00
68077;BME280;54866;53.458;14.540;2023-07-22T05:11:00;100180.83;;;13.42;100.00
68077;BME280;54866;53.458;14.540;2023-07-22T05:13:29;100182.14;;;13.50;100.00
68077;BME280;54866;53.458;14.540;2023-07-22T05:15:58;100181.98;;;13.59;100.00
68077;BME280;54866;53.458;14.540;2023-07-22T05:18:28;100189.77;;;13.68;100.00
68077;BME280;54866;53.458;14.540;2023-07-22T05:20:57;100191.13;;;13.74;100.00
68077;BME280;54866;53.458;14.540;2023-07-22T05:23:26;100193.95;;;13.82;100.00
68077;BME280;54866;53.458;14.540;2023-07-22T05:25:56;100191.92;;;13.92;100.00
68077;BME280;54866;53.458;14.540;2023-07-22T05:28:25;100196.19;;;13.99;100.00
68077;BME280;54866;53.458;14.540;2023-07-22T05:30:56;100195.97;;;14.05;100.00
68077;BME280;54866;53.458;14.540;2023-07-22T05:33:26;100194.48;;;14.07;99.98
68077;BME280;54866;53.458;14.540;2023-07-22T05:35:55;100192.26;;;14.10;99.94
68077;BME280;54866;53.458;14.540;2023-07-22T05:38:24;100192.80;;;14.13;99.71
68077;BME280;54866;53.458;14.540;2023-07-22T05:40:54;100193.05;;;14.19;99.47
68077;BME280;54866;53.458;14.540;2023-07-22T05:43:23;100191.54;;;14.29;99.05
68077;BME280;54866;53.458;14.540;2023-07-22T05:45:53;100189.04;;;14.43;97.94
68077;BME280;54866;53.458;14.540;2023-07-22T05:48:22;100188.59;;;14.80;96.22
68077;BME280;54866;53.458;14.540;2023-07-22T05:50:51;100189.36;;;15.13;93.77
68077;BME280;54866;53.458;14.540;2023-07-22T05:53:21;100190.48;;;15.79;91.72
68077;BME280;54866;53.458;14.540;2023-07-22T05:55:50;100192.52;;;17.13;86.02
68077;BME280;54866;53.458;14.540;2023-07-22T05:58:19;100199.83;;;18.46;78.01
68077;BME280;54866;53.458;14.540;2023-07-22T06:00:48;100197.86;;;20.02;73.90
68077;BME280;54866;53.458;14.540;2023-07-22T06:03:19;100193.79;;;20.92;67.28
68077;BME280;54866;53.458;14.540;2023-07-22T06:05:49;100197.64;;;21.88;61.26
68077;BME280;54866;53.458;14.540;2023-07-22T06:08:19;100199.39;;;22.23;58.72
68077;BME280;54866;53.458;14.540;2023-07-22T06:10:48;100197.41;;;22.11;58.90
68077;BME280;54866;53.458;14.540;2023-07-22T06:13:18;100199.48;;;21.55;60.05
68077;BME280;54866;53.458;14.540;2023-07-22T06:15:48;100201.08;;;20.65;61.49
68077;BME280;54866;53.458;14.540;2023-07-22T06:18:17;100203.03;;;19.82;63.40
68077;BME280;54866;53.458;14.540;2023-07-22T06:20:46;100206.59;;;19.46;64.80
68077;BME280;54866;53.458;14.540;2023-07-22T06:23:16;100209.34;;;19.08;65.61
68077;BME280;54866;53.458;14.540;2023-07-22T06:25:45;100222.95;;;18.42;67.20
68077;BME280;54866;53.458;14.540;2023-07-22T06:28:15;100216.62;;;18.37;67.56
68077;BME280;54866;53.458;14.540;2023-07-22T06:30:44;100223.67;;;18.46;68.07
68077;BME280;54866;53.458;14.540;2023-07-22T06:33:13;100217.82;;;18.52;67.40
68077;BME280;54866;53.458;14.540;2023-07-22T06:35:44;100217.52;;;18.14;68.51
68077;BME280;54866;53.458;14.540;2023-07-22T06:38:13;100218.14;;;18.33;68.39
68077;BME280;54866;53.458;14.540;2023-07-22T06:40:43;100213.57;;;19.40;64.07
68077;BME280;54866;53.458;14.540;2023-07-22T06:43:12;100216.45;;;21.02;59.24
68077;BME280;54866;53.458;14.540;2023-07-22T06:45:41;100215.96;;;21.84;56.74
68077;BME280;54866;53.458;14.540;2023-07-22T06:48:11;100210.84;;;21.52;56.91
68077;BME280;54866;53.458;14.540;2023-07-22T06:50:40;100200.73;;;20.86;57.20
68077;BME280;54866;53.458;14.540;2023-07-22T06:53:15;100209.58;;;19.89;58.66
68077;BME280;54866;53.458;14.540;2023-07-22T06:55:51;100213.23;;;19.09;61.19
68077;BME280;54866;53.458;14.540;2023-07-22T06:58:21;100219.00;;;18.84;62.82
68077;BME280;54866;53.458;14.540;2023-07-22T07:00:55;100212.48;;;18.86;63.57
68077;BME280;54866;53.458;14.540;2023-07-22T07:03:25;100215.38;;;18.90;61.97
68077;BME280;54866;53.458;14.540;2023-07-22T07:05:55;100213.85;;;18.75;61.89
68077;BME280;54866;53.458;14.540;2023-07-22T07:08:25;100218.61;;;18.53;62.73
68077;BME280;54866;53.458;14.540;2023-07-22T07:10:54;100213.29;;;18.50;63.24
68077;BME280;54866;53.458;14.540;2023-07-22T07:13:23;100207.22;;;18.69;62.41
68077;BME280;54866;53.458;14.540;2023-07-22T07:15:54;100221.92;;;18.70;61.61
68077;BME280;54866;53.458;14.540;2023-07-22T07:18:23;100221.29;;;18.71;61.74
68077;BME280;54866;53.458;14.540;2023-07-22T07:20:53;100226.86;;;18.90;61.99
68077;BME280;54866;53.458;14.540;2023-07-22T07:23:23;100218.89;;;18.97;61.39
68077;BME280;54866;53.458;14.540;2023-07-22T07:25:52;100218.23;;;18.83;59.80
68077;BME280;54866;53.458;14.540;2023-07-22T07:28:21;100216.45;;;18.95;59.04
68077;BME280;54866;53.458;14.540;2023-07-22T07:30:51;100226.17;;;18.91;59.45
68077;BME280;54866;53.458;14.540;2023-07-22T07:33:20;100218.20;;;18.83;59.47
68077;BME280;54866;53.458;14.540;2023-07-22T07:35:49;100232.38;;;18.72;59.61
68077;BME280;54866;53.458;14.540;2023-07-22T07:38:18;100238.31;;;18.78;60.64
68077;BME280;54866;53.458;14.540;2023-07-22T07:40:53;100233.05;;;19.02;60.74
68077;BME280;54866;53.458;14.540;2023-07-22T07:43:22;100231.80;;;19.24;60.07
68077;BME280;54866;53.458;14.540;2023-07-22T07:45:59;100237.17;;;19.44;59.40
68077;BME280;54866;53.458;14.540;2023-07-22T07:48:40;100246.38;;;19.58;58.29
68077;BME280;54866;53.458;14.540;2023-07-22T07:51:10;100242.36;;;19.37;58.15
68077;BME280;54866;53.458;14.540;2023-07-22T07:53:40;100236.74;;;19.20;58.75
68077;BME280;54866;53.458;14.540;2023-07-22T07:56:10;100244.66;;;19.02;59.00
68077;BME280;54866;53.458;14.540;2023-07-22T07:58:40;100250.64;;;19.03;59.07
68077;BME280;54866;53.458;14.540;2023-07-22T08:01:09;100254.89;;;18.93;59.25
68077;BME280;54866;53.458;14.540;2023-07-22T08:03:40;100250.91;;;18.93;59.40
68077;BME280;54866;53.458;14.540;2023-07-22T08:06:11;100261.16;;;19.09;58.97
68077;BME280;54866;53.458;14.540;2023-07-22T08:08:40;100257.02;;;19.33;57.78
68077;BME280;54866;53.458;14.540;2023-07-22T08:11:11;100256.40;;;19.55;56.26
68077;BME280;54866;53.458;14.540;2023-07-22T08:13:42;100259.77;;;19.92;56.08
68077;BME280;54866;53.458;14.540;2023-07-22T08:16:14;100254.08;;;20.21;54.72
68077;BME280;54866;53.458;14.540;2023-07-22T08:18:43;100251.63;;;20.25;53.84
68077;BME280;54866;53.458;14.540;2023-07-22T08:21:15;100261.71;;;20.11;52.62
68077;BME280;54866;53.458;14.540;2023-07-22T08:23:44;100264.56;;;20.11;52.76
68077;BME280;54866;53.458;14.540;2023-07-22T08:26:15;100260.14;;;19.98;52.28
68077;BME280;54866;53.458;14.540;2023-07-22T08:28:49;100265.46;;;19.86;53.03
68077;BME280;54866;53.458;14.540;2023-07-22T08:31:18;100269.55;;;19.68;53.53
68077;BME280;54866;53.458;14.540;2023-07-22T08:33:47;100276.60;;;19.58;54.21
68077;BME280;54866;53.458;14.540;2023-07-22T08:36:17;100275.91;;;19.46;54.94
68077;BME280;54866;53.458;14.540;2023-07-22T08:38:46;100274.64;;;19.34;55.12
68077;BME280;54866;53.458;14.540;2023-07-22T08:41:16;100283.17;;;19.19;54.89
68077;BME280;54866;53.458;14.540;2023-07-22T08:43:47;100283.51;;;19.19;55.34
68077;BME280;54866;53.458;14.540;2023-07-22T08:46:17;100284.42;;;19.42;55.32
68077;BME280;54866;53.458;14.540;2023-07-22T08:48:51;100281.14;;;19.51;55.12
68077;BME280;54866;53.458;14.540;2023-07-22T08:51:23;100288.09;;;19.53;55.18
68077;BME280;54866;53.458;14.540;2023-07-22T08:53:54;100291.86;;;19.34;54.41
68077;BME280;54866;53.458;14.540;2023-07-22T08:56:25;100299.23;;;19.03;55.19
68077;BME280;54866;53.458;14.540;2023-07-22T08:58:54;100298.98;;;18.84;55.95
68077;BME280;54866;53.458;14.540;2023-07-22T09:01:24;100302.88;;;18.77;56.32
68077;BME280;54866;53.458;14.540;2023-07-22T09:03:55;100305.82;;;18.65;56.84
68077;BME280;54866;53.458;14.540;2023-07-22T09:06:26;100301.80;;;18.84;56.93
68077;BME280;54866;53.458;14.540;2023-07-22T09:08:56;100301.67;;;18.96;56.12
68077;BME280;54866;53.458;14.540;2023-07-22T09:11:26;100308.43;;;19.33;55.15
68077;BME280;54866;53.458;14.540;2023-07-22T09:13:56;100299.23;;;19.68;53.74
68077;BME280;54866;53.458;14.540;2023-07-22T09:16:27;100299.94;;;19.93;52.27
68077;BME280;54866;53.458;14.540;2023-07-22T09:18:58;100295.75;;;19.91;51.30
68077;BME280;54866;53.458;14.540;2023-07-22T09:21:27;100303.35;;;19.88;50.94
68077;BME280;54866;53.458;14.540;2023-07-22T09:23:57;100298.27;;;19.91;51.37
68077;BME280;54866;53.458;14.540;2023-07-22T09:26:26;100300.31;;;20.09;50.02
68077;BME280;54866;53.458;14.540;2023-07-22T09:28:56;100298.98;;;20.20;50.05
68077;BME280;54866;53.458;14.540;2023-07-22T09:31:27;100302.38;;;20.37;49.18
68077;BME280;54866;53.458;14.540;2023-07-22T09:34:10;100295.83;;;20.58;49.27
68077;BME280;54866;53.458;14.540;2023-07-22T09:36:51;100289.99;;;20.55;48.00
68077;BME280;54866;53.458;14.540;2023-07-22T09:39:21;100292.71;;;20.41;48.76
68077;BME280;54866;53.458;14.540;2023-07-22T09:41:51;100293.07;;;20.24;48.71
68077;BME280;54866;53.458;14.540;2023-07-22T09:44:22;100294.91;;;20.01;49.08
68077;BME280;54866;53.458;14.540;2023-07-22T09:46:51;100295.78;;;19.78;50.43
68077;BME280;54866;53.458;14.540;2023-07-22T09:49:21;100295.52;;;19.86;50.98
68077;BME280;54866;53.458;14.540;2023-07-22T09:51:52;100297.33;;;20.07;50.77
68077;BME280;54866;53.458;14.540;2023-07-22T09:54:21;100300.14;;;20.49;50.30
68077;BME280;54866;53.458;14.540;2023-07-22T09:56:51;100296.64;;;20.94;48.43
68077;BME280;54866;53.458;14.540;2023-07-22T09:59:22;100288.23;;;21.32;46.63
68077;BME280;54866;53.458;14.540;2023-07-22T10:01:52;100295.27;;;21.58;46.31
68077;BME280;54866;53.458;14.540;2023-07-22T10:04:23;100289.90;;;21.33;46.14
68077;BME280;54866;53.458;14.540;2023-07-22T10:06:55;100291.69;;;21.22;46.90
68077;BME280;54866;53.458;14.540;2023-07-22T10:09:27;100284.39;;;21.26;47.10
68077;BME280;54866;53.458;14.540;2023-07-22T10:11:58;100288.15;;;21.46;46.16
68077;BME280;54866;53.458;14.540;2023-07-22T10:14:28;100298.01;;;21.87;45.52
68077;BME280;54866;53.458;14.540;2023-07-22T10:16:57;100294.40;;;21.72;45.16
68077;BME280;54866;53.458;14.540;2023-07-22T10:19:28;100293.53;;;21.31;45.36
68077;BME280;54866;53.458;14.540;2023-07-22T10:21:58;100291.74;;;21.03;46.35
68077;BME280;54866;53.458;14.540;2023-07-22T10:24:28;100310.12;;;20.72;48.08
68077;BME280;54866;53.458;14.540;2023-07-22T10:26:58;100309.44;;;20.49;49.15
68077;BME280;54866;53.458;14.540;2023-07-22T10:29:27;100307.26;;;20.55;49.37
68077;BME280;54866;53.458;14.540;2023-07-22T10:31:57;100304.95;;;20.98;48.63
68077;BME280;54866;53.458;14.540;2023-07-22T10:34:28;100298.32;;;21.19;47.93
68077;BME280;54866;53.458;14.540;2023-07-22T10:36:58;100298.95;;;21.42;47.77
68077;BME280;54866;53.458;14.540;2023-07-22T10:39:28;100296.94;;;21.72;47.52
68077;BME280;54866;53.458;14.540;2023-07-22T10:42:03;100304.23;;;22.04;45.68
68077;BME280;54866;53.458;14.540;2023-07-22T10:44:34;100301.33;;;22.17;43.98
68077;BME280;54866;53.458;14.540;2023-07-22T10:47:07;100308.08;;;22.02;43.68
68077;BME280;54866;53.458;14.540;2023-07-22T10:49:48;100308.48;;;21.72;43.85
68077;BME280;54866;53.458;14.540;2023-07-22T10:52:43;100315.13;;;21.58;43.28
68077;BME280;54866;53.458;14.540;2023-07-22T10:55:19;100315.35;;;21.75;41.98
68077;BME280;54866;53.458;14.540;2023-07-22T10:57:53;100317.27;;;21.89;41.47
68077;BME280;54866;53.458;14.540;2023-07-22T11:00:23;100320.05;;;21.99;41.44
68077;BME280;54866;53.458;14.540;2023-07-22T11:03:11;100319.91;;;21.88;41.42
68077;BME280;54866;53.458;14.540;2023-07-22T11:05:52;100329.74;;;21.96;40.02
68077;BME280;54866;53.458;14.540;2023-07-22T11:08:40;100324.82;;;21.83;41.22
68077;BME280;54866;53.458;14.540;2023-07-22T11:11:12;100316.79;;;21.97;41.68
68077;BME280;54866;53.458;14.540;2023-07-22T11:13:41;100326.08;;;22.07;41.59
68077;BME280;54866;53.458;14.540;2023-07-22T11:16:14;100319.66;;;22.26;40.95
68077;BME280;54866;53.458;14.540;2023-07-22T11:18:44;100325.09;;;22.26;40.79
68077;BME280;54866;53.458;14.540;2023-07-22T11:21:13;100326.92;;;22.19;40.20
68077;BME280;54866;53.458;14.540;2023-07-22T11:23:42;100334.09;;;22.03;40.53
68077;BME280;54866;53.458;14.540;2023-07-22T11:26:12;100330.81;;;21.94;40.25
68077;BME280;54866;53.458;14.540;2023-07-22T11:28:41;100323.49;;;21.93;40.50
68077;BME280;54866;53.458;14.540;2023-07-22T11:31:11;100331.45;;;22.06;39.96
68077;BME280;54866;53.458;14.540;2023-07-22T11:33:41;100327.13;;;22.10;40.68
68077;BME280;54866;53.458;14.540;2023-07-22T11:36:14;100327.23;;;22.28;40.84
68077;BME280;54866;53.458;14.540;2023-07-22T11:38:43;100325.42;;;22.51;40.56
68077;BME280;54866;53.458;14.540;2023-07-22T11:41:13;100323.86;;;22.58;39.92
68077;BME280;54866;53.458;14.540;2023-07-22T11:43:42;100325.64;;;22.45;39.40
68077;BME280;54866;53.458;14.540;2023-07-22T11:46:12;100330.34;;;22.30;40.03
68077;BME280;54866;53.458;14.540;2023-07-22T11:48:50;100319.63;;;22.15;40.32
68077;BME280;54866;53.458;14.540;2023-07-22T11:51:21;100326.48;;;21.85;40.85
68077;BME280;54866;53.458;14.540;2023-07-22T11:53:52;100323.95;;;21.60;41.67
68077;BME280;54866;53.458;14.540;2023-07-22T11:56:25;100331.95;;;21.48;41.97
68077;BME280;54866;53.458;14.540;2023-07-22T11:58:56;100332.22;;;21.68;41.64
68077;BME280;54866;53.458;14.540;2023-07-22T12:01:31;100330.25;;;21.74;41.72
68077;BME280;54866;53.458;14.540;2023-07-22T12:04:01;100336.85;;;21.78;41.24
68077;BME280;54866;53.458;14.540;2023-07-22T12:06:30;100336.89;;;21.68;41.63
68077;BME280;54866;53.458;14.540;2023-07-22T12:09:01;100326.38;;;21.42;41.42
68077;BME280;54866;53.458;14.540;2023-07-22T12:11:33;100337.47;;;21.29;41.35
68077;BME280;54866;53.458;14.540;2023-07-22T12:14:10;100342.09;;;21.12;42.10
68077;BME280;54866;53.458;14.540;2023-07-22T12:16:40;100341.19;;;21.13;42.16
68077;BME280;54866;53.458;14.540;2023-07-22T12:19:11;100343.09;;;20.99;42.14
68077;BME280;54866;53.458;14.540;2023-07-22T12:21:40;100339.14;;;20.97;41.83
68077;BME280;54866;53.458;14.540;2023-07-22T12:24:13;100337.67;;;20.86;41.41
68077;BME280;54866;53.458;14.540;2023-07-22T12:26:41;100340.18;;;20.91;41.02
68077;BME280;54866;53.458;14.540;2023-07-22T12:29:10;100316.18;;;21.05;41.24
68077;BME280;54866;53.458;14.540;2023-07-22T12:31:40;100334.95;;;21.15;40.83
68077;BME280;54866;53.458;14.540;2023-07-22T12:34:09;100324.55;;;21.20;40.45
68077;BME280;54866;53.458;14.540;2023-07-22T12:36:38;100335.16;;;21.24;39.88
68077;BME280;54866;53.458;14.540;2023-07-22T12:39:07;100336.33;;;21.37;39.57
68077;BME280;54866;53.458;14.540;2023-07-22T12:41:37;100327.95;;;21.39;39.31
68077;BME280;54866;53.458;14.540;2023-07-22T12:44:06;100322.60;;;21.37;38.89
68077;BME280;54866;53.458;14.540;2023-07-22T12:46:35;100327.55;;;21.51;39.01
68077;BME280;54866;53.458;14.540;2023-07-22T12:49:05;100321.37;;;21.78;39.40
68077;BME280;54866;53.458;14.540;2023-07-22T12:51:34;100325.52;;;22.06;39.67
68077;BME280;54866;53.458;14.540;2023-07-22T12:54:03;100320.61;;;22.29;38.14
68077;BME280;54866;53.458;14.540;2023-07-22T12:56:33;100322.23;;;22.37;37.58